sensor_id;sensor_type;location;lat;lon;timestamp;P1;durP1;ratioP1;P2;durP2;ratioP2
9763;SDS011;4921;43.214;27.936;2022-12-18T00:02:18;4.03;;;3.10;;
9763;SDS011;4921;43.214;27.936;2022-12-18T00:04:47;3.00;;;2.63;;
9763;SDS011;4921;43.214;27.936;2022-12-18T00:07:14;3.37;;;3.07;;
9763;SDS011;4921;43.214;27.936;2022-12-18T00:09:40;3.07;;;2.90;;
9763;SDS011;4921;43.214;27.936;2022-12-18T00:12:07;4.30;;;2.87;;
9763;SDS011;4921;43.214;27.936;2022-12-18T00:14:36;3.17;;;2.87;;
9763;SDS011;4921;43.214;27.936;2022-12-18T00:17:03;3.80;;;2.80;;
9763;SDS011;4921;43.214;27.936;2022-12-18T00:19:29;6.00;;;3.20;;
9763;SDS011;4921;43.214;27.936;2022-12-18T00:21:56;3.30;;;3.00;;
9763;SDS011;4921;43.214;27.936;2022-12-18T00:24:24;4.00;;;3.00;;
9763;SDS011;4921;43.214;27.936;2022-12-18T00:26:51;3.10;;;2.80;;
9763;SDS011;4921;43.214;27.936;2022-12-18T00:29:18;4.73;;;2.73;;
9763;SDS011;4921;43.214;27.936;2022-12-18T00:31:46;3.30;;;2.60;;
9763;SDS011;4921;43.214;27.936;2022-12-18T00:34:13;3.17;;;2.90;;
9763;SDS011;4921;43.214;27.936;2022-12-18T00:36:40;3.20;;;2.90;;
9763;SDS011;4921;43.214;27.936;2022-12-18T00:39:07;2.90;;;2.70;;
9763;SDS011;4921;43.214;27.936;2022-12-18T00:41:35;2.93;;;2.73;;
9763;SDS011;4921;43.214;27.936;2022-12-18T00:44:20;4.23;;;2.80;;
9763;SDS011;4921;43.214;27.936;2022-12-18T00:46:48;3.93;;;2.83;;
9763;SDS011;4921;43.214;27.936;2022-12-18T00:49:16;2.87;;;2.67;;
9763;SDS011;4921;43.214;27.936;2022-12-18T00:51:43;2.50;;;2.30;;
9763;SDS011;4921;43.214;27.936;2022-12-18T00:54:10;4.40;;;2.60;;
9763;SDS011;4921;43.214;27.936;2022-12-18T00:56:37;3.43;;;2.40;;
9763;SDS011;4921;43.214;27.936;2022-12-18T00:59:05;2.73;;;2.53;;
9763;SDS011;4921;43.214;27.936;2022-12-18T01:01:32;2.80;;;2.60;;
9763;SDS011;4921;43.214;27.936;2022-12-18T01:04:02;3.80;;;2.87;;
9763;SDS011;4921;43.214;27.936;2022-12-18T01:06:30;3.90;;;2.90;;
9763;SDS011;4921;43.214;27.936;2022-12-18T01:08:57;3.50;;;3.20;;
9763;SDS011;4921;43.214;27.936;2022-12-18T01:11:24;2.93;;;2.73;;
9763;SDS011;4921;43.214;27.936;2022-12-18T01:13:52;3.13;;;2.80;;
9763;SDS011;4921;43.214;27.936;2022-12-18T01:16:20;3.50;;;3.20;;
9763;SDS011;4921;43.214;27.936;2022-12-18T01:18:47;3.10;;;2.90;;
9763;SDS011;4921;43.214;27.936;2022-12-18T01:21:18;3.70;;;2.67;;
9763;SDS011;4921;43.214;27.936;2022-12-18T01:23:45;2.60;;;2.47;;
9763;SDS011;4921;43.214;27.936;2022-12-18T01:26:13;2.87;;;2.67;;
9763;SDS011;4921;43.214;27.936;2022-12-18T01:28:41;2.83;;;2.63;;
9763;SDS011;4921;43.214;27.936;2022-12-18T01:31:12;3.53;;;3.23;;
9763;SDS011;4921;43.214;27.936;2022-12-18T01:33:41;2.80;;;2.60;;
9763;SDS011;4921;43.214;27.936;2022-12-18T01:36:14;3.40;;;3.10;;
9763;SDS011;4921;43.214;27.936;2022-12-18T01:38:43;3.03;;;2.83;;
9763;SDS011;4921;43.214;27.936;2022-12-18T01:41:10;3.50;;;3.20;;
9763;SDS011;4921;43.214;27.936;2022-12-18T01:43:44;2.80;;;2.60;;
9763;SDS011;4921;43.214;27.936;2022-12-18T01:46:14;3.20;;;3.00;;
9763;SDS011;4921;43.214;27.936;2022-12-18T01:48:41;8.87;;;3.50;;
9763;SDS011;4921;43.214;27.936;2022-12-18T01:51:10;3.10;;;2.90;;
9763;SDS011;4921;43.214;27.936;2022-12-18T01:53:39;3.37;;;3.10;;
9763;SDS011;4921;43.214;27.936;2022-12-18T01:56:11;3.87;;;2.97;;
9763;SDS011;4921;43.214;27.936;2022-12-18T01:58:41;3.40;;;3.20;;
9763;SDS011;4921;43.214;27.936;2022-12-18T02:01:15;2.57;;;2.40;;
9763;SDS011;4921;43.214;27.936;2022-12-18T02:03:42;5.13;;;3.33;;
9763;SDS011;4921;43.214;27.936;2022-12-18T02:06:13;3.27;;;3.00;;
9763;SDS011;4921;43.214;27.936;2022-12-18T02:08:47;2.77;;;2.50;;
9763;SDS011;4921;43.214;27.936;2022-12-18T02:11:22;2.80;;;2.60;;
9763;SDS011;4921;43.214;27.936;2022-12-18T02:13:57;2.97;;;2.73;;
9763;SDS011;4921;43.214;27.936;2022-12-18T02:16:34;3.47;;;2.80;;
9763;SDS011;4921;43.214;27.936;2022-12-18T02:19:14;2.50;;;2.40;;
9763;SDS011;4921;43.214;27.936;2022-12-18T02:21:49;3.00;;;2.70;;
9763;SDS011;4921;43.214;27.936;2022-12-18T02:24:27;2.97;;;2.77;;
9763;SDS011;4921;43.214;27.936;2022-12-18T02:27:03;3.13;;;2.87;;
9763;SDS011;4921;43.214;27.936;2022-12-18T02:29:32;2.97;;;2.70;;
9763;SDS011;4921;43.214;27.936;2022-12-18T02:32:05;3.10;;;2.80;;
9763;SDS011;4921;43.214;27.936;2022-12-18T02:34:36;2.80;;;2.60;;
9763;SDS011;4921;43.214;27.936;2022-12-18T02:37:05;2.60;;;2.50;;
9763;SDS011;4921;43.214;27.936;2022-12-18T02:39:36;3.27;;;2.70;;
9763;SDS011;4921;43.214;27.936;2022-12-18T02:42:07;5.37;;;2.97;;
9763;SDS011;4921;43.214;27.936;2022-12-18T02:44:34;3.17;;;2.97;;
9763;SDS011;4921;43.214;27.936;2022-12-18T02:47:08;2.90;;;2.70;;
9763;SDS011;4921;43.214;27.936;2022-12-18T02:49:40;2.97;;;2.77;;
9763;SDS011;4921;43.214;27.936;2022-12-18T02:52:17;2.80;;;2.60;;
9763;SDS011;4921;43.214;27.936;2022-12-18T02:54:56;3.00;;;2.80;;
9763;SDS011;4921;43.214;27.936;2022-12-18T02:57:32;3.20;;;2.90;;
9763;SDS011;4921;43.214;27.936;2022-12-18T03:00:04;3.43;;;3.13;;
9763;SDS011;4921;43.214;27.936;2022-12-18T03:02:36;2.90;;;2.70;;
9763;SDS011;4921;43.214;27.936;2022-12-18T03:05:08;3.07;;;2.80;;
9763;SDS011;4921;43.214;27.936;2022-12-18T03:07:42;2.60;;;2.40;;
9763;SDS011;4921;43.214;27.936;2022-12-18T03:10:14;2.97;;;2.77;;
9763;SDS011;4921;43.214;27.936;2022-12-18T03:12:47;2.87;;;2.67;;
9763;SDS011;4921;43.214;27.936;2022-12-18T03:15:21;3.03;;;2.83;;
9763;SDS011;4921;43.214;27.936;2022-12-18T03:17:52;2.93;;;2.73;;
9763;SDS011;4921;43.214;27.936;2022-12-18T03:20:24;2.90;;;2.70;;
9763;SDS011;4921;43.214;27.936;2022-12-18T03:22:57;3.20;;;2.87;;
9763;SDS011;4921;43.214;27.936;2022-12-18T03:25:30;3.37;;;3.17;;
9763;SDS011;4921;43.214;27.936;2022-12-18T03:28:01;3.17;;;2.97;;
9763;SDS011;4921;43.214;27.936;2022-12-18T03:30:29;3.10;;;2.90;;
9763;SDS011;4921;43.214;27.936;2022-12-18T03:33:02;3.27;;;3.07;;
9763;SDS011;4921;43.214;27.936;2022-12-18T03:35:34;3.40;;;2.93;;
9763;SDS011;4921;43.214;27.936;2022-12-18T03:38:04;3.10;;;2.90;;
9763;SDS011;4921;43.214;27.936;2022-12-18T03:40:32;3.00;;;2.80;;
9763;SDS011;4921;43.214;27.936;2022-12-18T03:43:10;3.40;;;3.10;;
9763;SDS011;4921;43.214;27.936;2022-12-18T03:45:45;2.90;;;2.70;;
9763;SDS011;4921;43.214;27.936;2022-12-18T03:48:18;3.47;;;3.20;;
9763;SDS011;4921;43.214;27.936;2022-12-18T03:50:49;3.20;;;3.00;;
9763;SDS011;4921;43.214;27.936;2022-12-18T03:53:25;3.47;;;3.17;;
9763;SDS011;4921;43.214;27.936;2022-12-18T03:55:57;2.90;;;2.70;;
9763;SDS011;4921;43.214;27.936;2022-12-18T03:58:27;3.30;;;3.03;;
9763;SDS011;4921;43.214;27.936;2022-12-18T04:00:59;3.03;;;2.83;;
9763;SDS011;4921;43.214;27.936;2022-12-18T04:03:29;3.00;;;2.73;;
9763;SDS011;4921;43.214;27.936;2022-12-18T04:05:58;2.70;;;2.50;;
9763;SDS011;4921;43.214;27.936;2022-12-18T04:08:27;2.40;;;2.30;;
9763;SDS011;4921;43.214;27.936;2022-12-18T04:10:55;2.63;;;2.53;;
9763;SDS011;4921;43.214;27.936;2022-12-18T04:13:22;3.43;;;3.17;;
9763;SDS011;4921;43.214;27.936;2022-12-18T04:15:51;3.40;;;3.10;;
9763;SDS011;4921;43.214;27.936;2022-12-18T04:18:18;3.10;;;2.90;;
9763;SDS011;4921;43.214;27.936;2022-12-18T04:20:45;3.27;;;3.00;;
9763;SDS011;4921;43.214;27.936;2022-12-18T04:23:12;3.30;;;3.03;;
9763;SDS011;4921;43.214;27.936;2022-12-18T04:25:39;3.87;;;3.57;;
9763;SDS011;4921;43.214;27.936;2022-12-18T04:28:06;4.20;;;3.20;;
9763;SDS011;4921;43.214;27.936;2022-12-18T04:30:33;4.00;;;3.30;;
9763;SDS011;4921;43.214;27.936;2022-12-18T04:33:01;3.70;;;3.40;;
9763;SDS011;4921;43.214;27.936;2022-12-18T04:35:28;3.77;;;3.47;;
9763;SDS011;4921;43.214;27.936;2022-12-18T04:37:56;4.50;;;3.60;;
9763;SDS011;4921;43.214;27.936;2022-12-18T04:40:23;4.30;;;4.00;;
9763;SDS011;4921;43.214;27.936;2022-12-18T04:42:50;5.07;;;4.23;;
9763;SDS011;4921;43.214;27.936;2022-12-18T04:45:16;6.07;;;5.47;;
9763;SDS011;4921;43.214;27.936;2022-12-18T04:47:43;5.30;;;4.80;;
9763;SDS011;4921;43.214;27.936;2022-12-18T04:50:12;5.27;;;4.77;;
9763;SDS011;4921;43.214;27.936;2022-12-18T04:52:38;5.73;;;5.13;;
9763;SDS011;4921;43.214;27.936;2022-12-18T04:55:06;5.87;;;5.23;;
9763;SDS011;4921;43.214;27.936;2022-12-18T04:57:33;6.40;;;5.80;;
9763;SDS011;4921;43.214;27.936;2022-12-18T05:00:00;6.70;;;5.87;;
9763;SDS011;4921;43.214;27.936;2022-12-18T05:02:27;6.60;;;6.00;;
9763;SDS011;4921;43.214;27.936;2022-12-18T05:04:53;6.37;;;5.67;;
9763;SDS011;4921;43.214;27.936;2022-12-18T05:07:22;6.70;;;6.00;;
9763;SDS011;4921;43.214;27.936;2022-12-18T05:09:49;6.90;;;5.93;;
9763;SDS011;4921;43.214;27.936;2022-12-18T05:12:15;8.00;;;6.70;;
9763;SDS011;4921;43.214;27.936;2022-12-18T05:14:42;8.70;;;5.80;;
9763;SDS011;4921;43.214;27.936;2022-12-18T05:17:09;5.90;;;5.33;;
9763;SDS011;4921;43.214;27.936;2022-12-18T05:19:36;5.47;;;4.97;;
9763;SDS011;4921;43.214;27.936;2022-12-18T05:22:06;7.43;;;6.40;;
9763;SDS011;4921;43.214;27.936;2022-12-18T05:24:37;6.87;;;5.50;;
9763;SDS011;4921;43.214;27.936;2022-12-18T05:27:04;6.83;;;5.90;;
9763;SDS011;4921;43.214;27.936;2022-12-18T05:29:31;11.20;;;6.73;;
9763;SDS011;4921;43.214;27.936;2022-12-18T05:31:58;8.67;;;7.27;;
9763;SDS011;4921;43.214;27.936;2022-12-18T05:34:24;8.50;;;7.57;;
9763;SDS011;4921;43.214;27.936;2022-12-18T05:36:51;8.67;;;7.13;;
9763;SDS011;4921;43.214;27.936;2022-12-18T05:39:18;7.60;;;6.80;;
9763;SDS011;4921;43.214;27.936;2022-12-18T05:41:46;10.50;;;7.87;;
9763;SDS011;4921;43.214;27.936;2022-12-18T05:44:13;10.13;;;7.77;;
9763;SDS011;4921;43.214;27.936;2022-12-18T05:46:40;10.53;;;8.77;;
9763;SDS011;4921;43.214;27.936;2022-12-18T05:49:07;11.23;;;8.73;;
9763;SDS011;4921;43.214;27.936;2022-12-18T05:51:34;11.67;;;9.00;;
9763;SDS011;4921;43.214;27.936;2022-12-18T05:54:01;10.30;;;8.57;;
9763;SDS011;4921;43.214;27.936;2022-12-18T05:56:28;11.27;;;9.03;;
9763;SDS011;4921;43.214;27.936;2022-12-18T05:58:56;11.50;;;8.93;;
9763;SDS011;4921;43.214;27.936;2022-12-18T06:01:24;10.70;;;9.10;;
9763;SDS011;4921;43.214;27.936;2022-12-18T06:03:52;11.23;;;9.20;;
9763;SDS011;4921;43.214;27.936;2022-12-18T06:06:19;13.00;;;9.90;;
9763;SDS011;4921;43.214;27.936;2022-12-18T06:08:47;13.37;;;10.33;;
9763;SDS011;4921;43.214;27.936;2022-12-18T06:11:16;11.67;;;10.47;;
9763;SDS011;4921;43.214;27.936;2022-12-18T06:13:44;11.20;;;9.90;;
9763;SDS011;4921;43.214;27.936;2022-12-18T06:16:13;13.07;;;10.30;;
9763;SDS011;4921;43.214;27.936;2022-12-18T06:18:40;12.97;;;10.40;;
9763;SDS011;4921;43.214;27.936;2022-12-18T06:21:07;13.97;;;10.60;;
9763;SDS011;4921;43.214;27.936;2022-12-18T06:23:34;13.47;;;10.90;;
9763;SDS011;4921;43.214;27.936;2022-12-18T06:26:03;13.47;;;10.70;;
9763;SDS011;4921;43.214;27.936;2022-12-18T06:28:31;13.60;;;11.03;;
9763;SDS011;4921;43.214;27.936;2022-12-18T06:30:58;13.50;;;10.60;;
9763;SDS011;4921;43.214;27.936;2022-12-18T06:33:27;15.77;;;11.60;;
9763;SDS011;4921;43.214;27.936;2022-12-18T06:35:54;12.37;;;10.63;;
9763;SDS011;4921;43.214;27.936;2022-12-18T06:38:26;13.63;;;11.77;;
9763;SDS011;4921;43.214;27.936;2022-12-18T06:40:53;13.63;;;11.50;;
9763;SDS011;4921;43.214;27.936;2022-12-18T06:43:20;14.10;;;11.03;;
9763;SDS011;4921;43.214;27.936;2022-12-18T06:45:47;14.57;;;11.37;;
9763;SDS011;4921;43.214;27.936;2022-12-18T06:48:17;14.93;;;11.60;;
9763;SDS011;4921;43.214;27.936;2022-12-18T06:50:46;17.47;;;13.23;;
9763;SDS011;4921;43.214;27.936;2022-12-18T06:53:13;17.90;;;13.53;;
9763;SDS011;4921;43.214;27.936;2022-12-18T06:55:40;15.57;;;12.93;;
9763;SDS011;4921;43.214;27.936;2022-12-18T06:58:07;17.60;;;13.67;;
9763;SDS011;4921;43.214;27.936;2022-12-18T07:00:34;16.67;;;13.70;;
9763;SDS011;4921;43.214;27.936;2022-12-18T07:03:01;18.63;;;14.17;;
9763;SDS011;4921;43.214;27.936;2022-12-18T07:05:28;20.33;;;13.77;;
9763;SDS011;4921;43.214;27.936;2022-12-18T07:07:57;18.10;;;13.77;;
9763;SDS011;4921;43.214;27.936;2022-12-18T07:10:24;18.30;;;13.90;;
9763;SDS011;4921;43.214;27.936;2022-12-18T07:12:51;22.87;;;16.07;;
9763;SDS011;4921;43.214;27.936;2022-12-18T07:15:18;19.00;;;14.33;;
9763;SDS011;4921;43.214;27.936;2022-12-18T07:17:45;19.23;;;14.33;;
9763;SDS011;4921;43.214;27.936;2022-12-18T07:20:12;20.20;;;14.83;;
9763;SDS011;4921;43.214;27.936;2022-12-18T07:22:39;22.17;;;15.33;;
9763;SDS011;4921;43.214;27.936;2022-12-18T07:25:08;21.23;;;15.47;;
9763;SDS011;4921;43.214;27.936;2022-12-18T07:27:35;20.30;;;14.87;;
9763;SDS011;4921;43.214;27.936;2022-12-18T07:30:02;20.53;;;15.33;;
9763;SDS011;4921;43.214;27.936;2022-12-18T07:32:30;20.47;;;15.40;;
9763;SDS011;4921;43.214;27.936;2022-12-18T07:34:57;21.43;;;15.43;;
9763;SDS011;4921;43.214;27.936;2022-12-18T07:37:24;21.63;;;16.30;;
9763;SDS011;4921;43.214;27.936;2022-12-18T07:39:50;23.80;;;16.03;;
9763;SDS011;4921;43.214;27.936;2022-12-18T07:42:19;21.40;;;15.87;;
9763;SDS011;4921;43.214;27.936;2022-12-18T07:44:58;20.73;;;15.70;;
9763;SDS011;4921;43.214;27.936;2022-12-18T07:47:25;23.13;;;16.37;;
9763;SDS011;4921;43.214;27.936;2022-12-18T07:49:52;20.70;;;16.20;;
9763;SDS011;4921;43.214;27.936;2022-12-18T07:52:20;23.30;;;16.40;;
9763;SDS011;4921;43.214;27.936;2022-12-18T07:54:47;23.13;;;16.80;;
9763;SDS011;4921;43.214;27.936;2022-12-18T07:57:15;23.37;;;16.17;;
9763;SDS011;4921;43.214;27.936;2022-12-18T07:59:43;20.50;;;15.97;;
9763;SDS011;4921;43.214;27.936;2022-12-18T08:02:10;23.73;;;16.20;;
9763;SDS011;4921;43.214;27.936;2022-12-18T08:04:37;23.10;;;16.80;;
9763;SDS011;4921;43.214;27.936;2022-12-18T08:07:04;24.43;;;16.27;;
9763;SDS011;4921;43.214;27.936;2022-12-18T08:09:31;21.20;;;15.80;;
9763;SDS011;4921;43.214;27.936;2022-12-18T08:11:58;24.07;;;16.43;;
9763;SDS011;4921;43.214;27.936;2022-12-18T08:14:25;21.17;;;16.87;;
9763;SDS011;4921;43.214;27.936;2022-12-18T08:16:53;22.37;;;16.87;;
9763;SDS011;4921;43.214;27.936;2022-12-18T08:19:20;24.23;;;18.10;;
9763;SDS011;4921;43.214;27.936;2022-12-18T08:21:47;22.80;;;17.37;;
9763;SDS011;4921;43.214;27.936;2022-12-18T08:24:14;23.80;;;16.77;;
9763;SDS011;4921;43.214;27.936;2022-12-18T08:26:41;22.67;;;17.03;;
9763;SDS011;4921;43.214;27.936;2022-12-18T08:29:08;20.83;;;15.30;;
9763;SDS011;4921;43.214;27.936;2022-12-18T08:31:36;22.83;;;16.33;;
9763;SDS011;4921;43.214;27.936;2022-12-18T08:34:04;22.60;;;15.73;;
9763;SDS011;4921;43.214;27.936;2022-12-18T08:36:31;23.47;;;16.47;;
9763;SDS011;4921;43.214;27.936;2022-12-18T08:38:58;25.73;;;15.80;;
9763;SDS011;4921;43.214;27.936;2022-12-18T08:41:25;21.20;;;16.53;;
9763;SDS011;4921;43.214;27.936;2022-12-18T08:43:52;25.53;;;16.73;;
9763;SDS011;4921;43.214;27.936;2022-12-18T08:46:37;22.20;;;16.30;;
9763;SDS011;4921;43.214;27.936;2022-12-18T08:49:07;21.73;;;17.03;;
9763;SDS011;4921;43.214;27.936;2022-12-18T08:51:35;23.93;;;17.67;;
9763;SDS011;4921;43.214;27.936;2022-12-18T08:54:02;24.13;;;16.70;;
9763;SDS011;4921;43.214;27.936;2022-12-18T08:56:30;26.23;;;17.87;;
9763;SDS011;4921;43.214;27.936;2022-12-18T08:58:57;21.67;;;16.40;;
9763;SDS011;4921;43.214;27.936;2022-12-18T09:01:24;23.40;;;17.43;;
9763;SDS011;4921;43.214;27.936;2022-12-18T09:03:51;24.10;;;17.60;;
9763;SDS011;4921;43.214;27.936;2022-12-18T09:06:20;21.30;;;15.73;;
9763;SDS011;4921;43.214;27.936;2022-12-18T09:08:48;25.37;;;17.47;;
9763;SDS011;4921;43.214;27.936;2022-12-18T09:11:17;22.87;;;16.90;;
9763;SDS011;4921;43.214;27.936;2022-12-18T09:13:46;21.33;;;16.20;;
9763;SDS011;4921;43.214;27.936;2022-12-18T09:16:13;24.27;;;16.80;;
9763;SDS011;4921;43.214;27.936;2022-12-18T09:18:40;25.47;;;17.90;;
9763;SDS011;4921;43.214;27.936;2022-12-18T09:21:08;23.70;;;17.00;;
9763;SDS011;4921;43.214;27.936;2022-12-18T09:23:37;22.90;;;16.97;;
9763;SDS011;4921;43.214;27.936;2022-12-18T09:26:04;24.20;;;16.37;;
9763;SDS011;4921;43.214;27.936;2022-12-18T09:28:31;24.17;;;16.50;;
9763;SDS011;4921;43.214;27.936;2022-12-18T09:30:58;23.30;;;16.37;;
9763;SDS011;4921;43.214;27.936;2022-12-18T09:33:29;20.93;;;15.57;;
9763;SDS011;4921;43.214;27.936;2022-12-18T09:35:56;23.13;;;17.23;;
9763;SDS011;4921;43.214;27.936;2022-12-18T09:38:23;21.83;;;16.23;;
9763;SDS011;4921;43.214;27.936;2022-12-18T09:40:52;22.40;;;17.03;;
9763;SDS011;4921;43.214;27.936;2022-12-18T09:43:22;23.87;;;17.00;;
9763;SDS011;4921;43.214;27.936;2022-12-18T09:45:53;25.87;;;16.07;;
9763;SDS011;4921;43.214;27.936;2022-12-18T09:48:25;23.53;;;17.10;;
9763;SDS011;4921;43.214;27.936;2022-12-18T09:50:57;22.90;;;17.13;;
9763;SDS011;4921;43.214;27.936;2022-12-18T09:53:30;22.63;;;16.00;;
9763;SDS011;4921;43.214;27.936;2022-12-18T09:56:03;22.53;;;16.03;;
9763;SDS011;4921;43.214;27.936;2022-12-18T09:58:31;22.27;;;16.40;;
9763;SDS011;4921;43.214;27.936;2022-12-18T10:03:53;24.77;;;16.93;;
9763;SDS011;4921;43.214;27.936;2022-12-18T10:06:21;23.70;;;16.50;;
9763;SDS011;4921;43.214;27.936;2022-12-18T10:08:54;26.13;;;16.70;;
9763;SDS011;4921;43.214;27.936;2022-12-18T10:11:32;24.60;;;16.60;;
9763;SDS011;4921;43.214;27.936;2022-12-18T10:14:08;25.63;;;17.50;;
9763;SDS011;4921;43.214;27.936;2022-12-18T10:16:43;25.27;;;17.60;;
9763;SDS011;4921;43.214;27.936;2022-12-18T10:19:22;25.90;;;17.60;;
9763;SDS011;4921;43.214;27.936;2022-12-18T10:21:59;23.87;;;17.60;;
9763;SDS011;4921;43.214;27.936;2022-12-18T10:24:35;24.43;;;18.07;;
9763;SDS011;4921;43.214;27.936;2022-12-18T10:27:12;27.17;;;16.93;;
9763;SDS011;4921;43.214;27.936;2022-12-18T10:29:41;26.77;;;18.60;;
9763;SDS011;4921;43.214;27.936;2022-12-18T10:32:13;24.13;;;17.60;;
9763;SDS011;4921;43.214;27.936;2022-12-18T10:34:44;24.70;;;17.80;;
9763;SDS011;4921;43.214;27.936;2022-12-18T10:37:13;27.30;;;18.47;;
9763;SDS011;4921;43.214;27.936;2022-12-18T10:39:43;26.33;;;18.27;;
9763;SDS011;4921;43.214;27.936;2022-12-18T10:42:16;24.07;;;17.13;;
9763;SDS011;4921;43.214;27.936;2022-12-18T10:44:44;28.90;;;17.43;;
9763;SDS011;4921;43.214;27.936;2022-12-18T10:47:12;24.07;;;18.30;;
9763;SDS011;4921;43.214;27.936;2022-12-18T10:49:47;24.50;;;18.27;;
9763;SDS011;4921;43.214;27.936;2022-12-18T10:52:17;25.80;;;19.10;;
9763;SDS011;4921;43.214;27.936;2022-12-18T10:54:46;25.17;;;18.37;;
9763;SDS011;4921;43.214;27.936;2022-12-18T10:57:19;25.70;;;18.73;;
9763;SDS011;4921;43.214;27.936;2022-12-18T10:59:57;26.20;;;17.70;;
9763;SDS011;4921;43.214;27.936;2022-12-18T11:02:26;24.97;;;18.10;;
9763;SDS011;4921;43.214;27.936;2022-12-18T11:04:57;26.60;;;18.53;;
9763;SDS011;4921;43.214;27.936;2022-12-18T11:07:24;26.23;;;18.53;;
9763;SDS011;4921;43.214;27.936;2022-12-18T11:09:59;25.70;;;19.00;;
9763;SDS011;4921;43.214;27.936;2022-12-18T11:12:31;26.70;;;18.73;;
9763;SDS011;4921;43.214;27.936;2022-12-18T11:14:58;27.17;;;19.47;;
9763;SDS011;4921;43.214;27.936;2022-12-18T11:17:28;27.67;;;18.60;;
9763;SDS011;4921;43.214;27.936;2022-12-18T11:19:58;28.23;;;19.07;;
9763;SDS011;4921;43.214;27.936;2022-12-18T11:22:26;26.80;;;19.57;;
9763;SDS011;4921;43.214;27.936;2022-12-18T11:24:56;30.23;;;19.87;;
9763;SDS011;4921;43.214;27.936;2022-12-18T11:27:25;25.93;;;20.23;;
9763;SDS011;4921;43.214;27.936;2022-12-18T11:30:06;30.03;;;21.27;;
9763;SDS011;4921;43.214;27.936;2022-12-18T11:32:35;30.23;;;20.33;;
9763;SDS011;4921;43.214;27.936;2022-12-18T11:35:10;31.07;;;20.73;;
9763;SDS011;4921;43.214;27.936;2022-12-18T11:37:45;43.83;;;21.73;;
9763;SDS011;4921;43.214;27.936;2022-12-18T11:40:16;32.47;;;21.77;;
9763;SDS011;4921;43.214;27.936;2022-12-18T11:42:48;33.33;;;22.37;;
9763;SDS011;4921;43.214;27.936;2022-12-18T11:45:29;27.27;;;20.10;;
9763;SDS011;4921;43.214;27.936;2022-12-18T11:48:02;30.90;;;20.77;;
9763;SDS011;4921;43.214;27.936;2022-12-18T11:50:33;27.63;;;20.80;;
9763;SDS011;4921;43.214;27.936;2022-12-18T11:53:11;30.20;;;20.93;;
9763;SDS011;4921;43.214;27.936;2022-12-18T11:55:40;33.33;;;21.57;;
9763;SDS011;4921;43.214;27.936;2022-12-18T11:58:15;31.57;;;21.10;;
9763;SDS011;4921;43.214;27.936;2022-12-18T12:00:56;32.97;;;22.37;;
9763;SDS011;4921;43.214;27.936;2022-12-18T12:03:38;25.67;;;18.67;;
9763;SDS011;4921;43.214;27.936;2022-12-18T12:06:16;26.07;;;18.70;;
9763;SDS011;4921;43.214;27.936;2022-12-18T12:08:55;21.77;;;15.83;;
9763;SDS011;4921;43.214;27.936;2022-12-18T12:11:31;24.43;;;15.80;;
9763;SDS011;4921;43.214;27.936;2022-12-18T12:14:17;19.70;;;15.40;;
9763;SDS011;4921;43.214;27.936;2022-12-18T12:16:58;21.37;;;15.43;;
9763;SDS011;4921;43.214;27.936;2022-12-18T12:19:36;20.07;;;14.97;;
9763;SDS011;4921;43.214;27.936;2022-12-18T12:22:13;22.90;;;14.07;;
9763;SDS011;4921;43.214;27.936;2022-12-18T12:24:51;15.60;;;12.30;;
9763;SDS011;4921;43.214;27.936;2022-12-18T12:27:32;16.43;;;12.03;;
9763;SDS011;4921;43.214;27.936;2022-12-18T12:30:06;18.70;;;12.47;;
9763;SDS011;4921;43.214;27.936;2022-12-18T12:32:41;18.43;;;12.90;;
9763;SDS011;4921;43.214;27.936;2022-12-18T12:35:23;18.30;;;12.77;;
9763;SDS011;4921;43.214;27.936;2022-12-18T12:38:06;19.43;;;12.50;;
9763;SDS011;4921;43.214;27.936;2022-12-18T12:40:36;14.70;;;10.70;;
9763;SDS011;4921;43.214;27.936;2022-12-18T12:43:12;12.10;;;10.20;;
9763;SDS011;4921;43.214;27.936;2022-12-18T12:45:55;17.70;;;10.03;;
9763;SDS011;4921;43.214;27.936;2022-12-18T12:48:33;8.37;;;7.30;;
9763;SDS011;4921;43.214;27.936;2022-12-18T12:51:08;7.23;;;5.47;;
9763;SDS011;4921;43.214;27.936;2022-12-18T12:53:40;9.37;;;5.40;;
9763;SDS011;4921;43.214;27.936;2022-12-18T12:56:08;6.77;;;5.50;;
9763;SDS011;4921;43.214;27.936;2022-12-18T12:58:40;7.03;;;5.03;;
9763;SDS011;4921;43.214;27.936;2022-12-18T13:01:14;6.50;;;5.90;;
9763;SDS011;4921;43.214;27.936;2022-12-18T13:03:52;10.77;;;5.50;;
9763;SDS011;4921;43.214;27.936;2022-12-18T13:06:28;6.13;;;5.50;;
9763;SDS011;4921;43.214;27.936;2022-12-18T13:09:17;6.23;;;5.63;;
9763;SDS011;4921;43.214;27.936;2022-12-18T13:11:44;6.03;;;5.43;;
9763;SDS011;4921;43.214;27.936;2022-12-18T13:14:30;6.90;;;6.07;;
9763;SDS011;4921;43.214;27.936;2022-12-18T13:17:14;6.60;;;6.00;;
9763;SDS011;4921;43.214;27.936;2022-12-18T13:20:08;10.30;;;6.70;;
9763;SDS011;4921;43.214;27.936;2022-12-18T13:22:37;7.00;;;6.30;;
9763;SDS011;4921;43.214;27.936;2022-12-18T13:28:10;7.97;;;6.47;;
9763;SDS011;4921;43.214;27.936;2022-12-18T13:33:37;9.20;;;6.40;;
9763;SDS011;4921;43.214;27.936;2022-12-18T13:36:12;9.80;;;7.23;;
9763;SDS011;4921;43.214;27.936;2022-12-18T13:45:37;7.70;;;6.47;;
9763;SDS011;4921;43.214;27.936;2022-12-18T13:48:13;8.63;;;6.60;;
9763;SDS011;4921;43.214;27.936;2022-12-18T13:50:48;8.23;;;7.07;;
9763;SDS011;4921;43.214;27.936;2022-12-18T13:53:21;7.77;;;6.80;;
9763;SDS011;4921;43.214;27.936;2022-12-18T13:55:52;8.93;;;6.97;;
9763;SDS011;4921;43.214;27.936;2022-12-18T13:58:19;7.43;;;6.60;;
9763;SDS011;4921;43.214;27.936;2022-12-18T14:00:46;7.77;;;6.97;;
9763;SDS011;4921;43.214;27.936;2022-12-18T14:03:21;7.80;;;7.00;;
9763;SDS011;4921;43.214;27.936;2022-12-18T14:05:53;16.40;;;7.63;;
9763;SDS011;4921;43.214;27.936;2022-12-18T14:08:23;9.07;;;7.43;;
9763;SDS011;4921;43.214;27.936;2022-12-18T14:10:52;8.33;;;6.63;;
9763;SDS011;4921;43.214;27.936;2022-12-18T14:13:21;8.67;;;6.70;;
9763;SDS011;4921;43.214;27.936;2022-12-18T14:15:53;8.37;;;6.20;;
9763;SDS011;4921;43.214;27.936;2022-12-18T14:18:21;8.20;;;6.33;;
9763;SDS011;4921;43.214;27.936;2022-12-18T14:20:51;8.50;;;6.77;;
9763;SDS011;4921;43.214;27.936;2022-12-18T14:23:30;10.07;;;7.03;;
9763;SDS011;4921;43.214;27.936;2022-12-18T14:25:59;8.63;;;7.33;;
9763;SDS011;4921;43.214;27.936;2022-12-18T14:28:26;9.97;;;7.37;;
9763;SDS011;4921;43.214;27.936;2022-12-18T14:30:54;9.43;;;7.77;;
9763;SDS011;4921;43.214;27.936;2022-12-18T14:33:22;9.27;;;7.50;;
9763;SDS011;4921;43.214;27.936;2022-12-18T14:35:54;8.60;;;7.37;;
9763;SDS011;4921;43.214;27.936;2022-12-18T14:38:25;7.57;;;6.63;;
9763;SDS011;4921;43.214;27.936;2022-12-18T14:40:56;10.27;;;7.47;;
9763;SDS011;4921;43.214;27.936;2022-12-18T14:43:26;10.03;;;7.30;;
9763;SDS011;4921;43.214;27.936;2022-12-18T14:45:53;11.67;;;7.57;;
9763;SDS011;4921;43.214;27.936;2022-12-18T14:48:22;10.53;;;7.57;;
9763;SDS011;4921;43.214;27.936;2022-12-18T14:50:59;8.77;;;7.20;;
9763;SDS011;4921;43.214;27.936;2022-12-18T14:53:32;9.50;;;7.33;;
9763;SDS011;4921;43.214;27.936;2022-12-18T14:56:13;10.37;;;8.10;;
9763;SDS011;4921;43.214;27.936;2022-12-18T14:58:46;10.87;;;7.77;;
9763;SDS011;4921;43.214;27.936;2022-12-18T15:01:18;8.83;;;7.40;;
9763;SDS011;4921;43.214;27.936;2022-12-18T15:03:50;11.83;;;8.03;;
9763;SDS011;4921;43.214;27.936;2022-12-18T15:06:23;10.43;;;7.70;;
9763;SDS011;4921;43.214;27.936;2022-12-18T15:08:53;10.57;;;7.90;;
9763;SDS011;4921;43.214;27.936;2022-12-18T15:11:28;8.70;;;7.63;;
9763;SDS011;4921;43.214;27.936;2022-12-18T15:13:59;14.10;;;8.60;;
9763;SDS011;4921;43.214;27.936;2022-12-18T15:16:49;9.60;;;8.10;;
9763;SDS011;4921;43.214;27.936;2022-12-18T15:19:17;11.17;;;7.97;;
9763;SDS011;4921;43.214;27.936;2022-12-18T15:21:46;11.87;;;8.70;;
9763;SDS011;4921;43.214;27.936;2022-12-18T15:24:16;11.10;;;8.27;;